Time;durP1;ratioP1;P1;durP2;ratioP2;P2;SDS_P1;SDS_P2;PMS_P1;PMS_P2;Temp;Humidity;BMP_temperature;BMP_pressure;BME280_temperature;BME280_humidity;BME280_pressure;Samples;Min_cycle;Max_cycle;Signal;HPM_P1;HPM_P2
2022/05/20 00:00:51;;;;;;;0.00;0.00;;;14.30;99.90;;;;;;5016567;28;20060;-74
2022/05/20 00:03:19;;;;;;;0.00;0.00;;;14.30;99.90;;;;;;5017244;28;20054;-72
2022/05/20 00:05:47;;;;;;;0.00;0.00;;;14.20;99.90;;;;;;5015821;28;20056;-73
2022/05/20 00:08:16;;;;;;;0.00;0.00;;;14.20;99.90;;;;;;5016547;28;20054;-74
2022/05/20 00:10:44;;;;;;;0.00;0.00;;;14.10;99.90;;;;;;5017112;28;20050;-71
2022/05/20 00:13:12;;;;;;;0.00;0.00;;;14.00;99.90;;;;;;4998628;28;20050;-73
2022/05/20 00:15:39;;;;;;;0.00;0.00;;;14.00;99.90;;;;;;5016123;28;20049;-71
2022/05/20 00:18:07;;;;;;;0.00;0.00;;;14.00;99.90;;;;;;5015788;28;20468;-75
2022/05/20 00:20:35;;;;;;;0.00;0.00;;;14.00;99.90;;;;;;5016360;28;20499;-75
2022/05/20 00:23:03;;;;;;;0.00;0.00;;;14.00;99.90;;;;;;4999136;28;20045;-73
2022/05/20 00:25:46;;;;;;;0.00;0.00;;;13.90;99.90;;;;;;4998520;28;20061;-72
2022/05/20 00:28:20;;;;;;;0.00;0.00;;;13.90;99.90;;;;;;5016838;28;20053;-71
2022/05/20 00:30:53;;;;;;;0.00;0.00;;;13.90;99.90;;;;;;5016332;28;20054;-71
2022/05/20 00:33:22;;;;;;;0.00;0.00;;;13.90;99.90;;;;;;5016817;28;20052;-71
2022/05/20 00:35:50;;;;;;;0.00;0.00;;;13.90;99.90;;;;;;5016052;28;20054;-74
2022/05/20 00:38:18;;;;;;;0.00;0.00;;;14.00;99.90;;;;;;4998725;28;20053;-74
2022/05/20 00:40:50;;;;;;;0.00;0.00;;;13.90;99.90;;;;;;5016195;28;20046;-71
2022/05/20 00:43:27;;;;;;;0.00;0.00;;;14.00;99.90;;;;;;5016383;28;20057;-72
2022/05/20 00:46:01;;;;;;;0.20;0.17;;;13.90;99.90;;;;;;5015747;28;20412;-71
2022/05/20 00:48:29;;;;;;;0.00;0.00;;;13.90;99.90;;;;;;5016048;28;20049;-71
2022/05/20 00:51:06;;;;;;;0.00;0.00;;;13.90;99.90;;;;;;5015001;28;20046;-73
2022/05/20 00:53:43;;;;;;;0.00;0.00;;;13.90;99.90;;;;;;4998663;28;20057;-74
2022/05/20 00:56:17;;;;;;;0.00;0.00;;;13.90;99.90;;;;;;5015935;28;20357;-75
2022/05/20 00:58:45;;;;;;;0.00;0.00;;;13.90;99.90;;;;;;5014810;28;20046;-76
2022/05/20 01:01:13;;;;;;;0.00;0.00;;;13.80;99.90;;;;;;4999251;28;20052;-73
2022/05/20 01:03:42;;;;;;;0.00;0.00;;;13.80;99.90;;;;;;5015779;28;20357;-74
2022/05/20 01:06:10;;;;;;;0.00;0.00;;;13.80;99.90;;;;;;5014747;28;20050;-73
2022/05/20 01:08:40;;;;;;;0.00;0.00;;;13.80;99.90;;;;;;5015494;28;20057;-71
2022/05/20 01:11:07;;;;;;;0.00;0.00;;;13.70;99.90;;;;;;5015118;28;20052;-75
2022/05/20 01:13:36;;;;;;;0.00;0.00;;;13.60;99.90;;;;;;5015499;28;20046;-71
2022/05/20 01:16:07;;;;;;;;;;;13.60;99.90;;;;;;5014802;28;20050;-70
2022/05/20 01:18:37;;;;;;;0.00;0.00;;;13.50;99.90;;;;;;5014879;28;19984;-73
2022/05/20 01:21:05;;;;;;;0.00;0.00;;;13.50;99.90;;;;;;5016007;28;20468;-74
2022/05/20 01:23:35;;;;;;;0.00;0.00;;;13.40;99.90;;;;;;5015292;28;20045;-75
2022/05/20 01:26:04;;;;;;;0.00;0.00;;;13.40;99.90;;;;;;5014300;28;20050;-75
2022/05/20 01:28:34;;;;;;;0.00;0.00;;;13.40;99.90;;;;;;5015576;28;20057;-74
2022/05/20 01:31:05;;;;;;;0.00;0.00;;;13.40;99.90;;;;;;5014480;28;20056;-71
2022/05/20 01:33:38;;;;;;;0.00;0.00;;;13.40;99.90;;;;;;4998493;28;20056;-73
2022/05/20 01:36:08;;;;;;;0.00;0.00;;;13.40;99.90;;;;;;5014272;28;20053;-74
2022/05/20 01:38:36;;;;;;;0.00;0.00;;;13.40;99.90;;;;;;5013627;28;20494;-73
2022/05/20 01:41:13;;;;;;;0.00;0.00;;;13.30;99.90;;;;;;5015672;28;20042;-71
2022/05/20 01:43:53;;;;;;;0.00;0.00;;;13.30;99.90;;;;;;5015293;28;20472;-71
2022/05/20 01:46:26;;;;;;;0.00;0.00;;;13.30;99.90;;;;;;5014370;28;20371;-73
2022/05/20 01:49:32;;;;;;;0.00;0.00;;;13.30;99.90;;;;;;4997766;28;20050;-72
2022/05/20 01:52:11;;;;;;;0.35;0.35;;;13.20;99.90;;;;;;5014075;28;20042;-71
2022/05/20 01:54:56;;;;;;;0.00;0.00;;;13.10;99.90;;;;;;5015504;28;20046;-71
2022/05/20 01:57:40;;;;;;;0.00;0.00;;;13.00;99.90;;;;;;5013977;28;20042;-74
2022/05/20 02:00:30;;;;;;;0.00;0.00;;;12.90;99.90;;;;;;5015087;28;20053;-73
2022/05/20 02:03:17;;;;;;;0.00;0.00;;;12.80;99.90;;;;;;5005301;28;20060;-72
2022/05/20 02:06:17;;;;;;;0.00;0.00;;;12.80;99.90;;;;;;5014239;28;20060;-70
2022/05/20 02:09:07;;;;;;;0.00;0.00;;;12.80;99.90;;;;;;4982548;28;20061;-73
2022/05/20 02:11:41;;;;;;;0.00;0.00;;;12.70;99.90;;;;;;5014161;28;20049;-74
2022/05/20 02:14:33;;;;;;;0.00;0.00;;;12.70;99.90;;;;;;5015432;28;20472;-73
2022/05/20 02:17:16;;;;;;;0.00;0.00;;;12.70;99.90;;;;;;5014841;28;20377;-75
2022/05/20 02:19:59;;;;;;;0.00;0.00;;;12.70;99.90;;;;;;5013767;28;20046;-73
2022/05/20 02:22:31;;;;;;;0.00;0.00;;;12.80;99.90;;;;;;5014829;28;20053;-70
2022/05/20 02:25:00;;;;;;;0.00;0.00;;;12.70;99.90;;;;;;5013954;28;20049;-75
2022/05/20 02:27:40;;;;;;;0.00;0.00;;;12.70;99.90;;;;;;5014980;28;20050;-71
2022/05/20 02:30:12;;;;;;;0.00;0.00;;;12.60;99.90;;;;;;5014610;28;20046;-74
2022/05/20 02:33:07;;;;;;;0.00;0.00;;;12.60;99.90;;;;;;5013709;28;20045;-72
2022/05/20 02:35:36;;;;;;;0.00;0.00;;;12.50;99.90;;;;;;4997229;28;20488;-72
2022/05/20 02:38:12;;;;;;;;;;;12.50;99.90;;;;;;5014287;28;20041;-71
2022/05/20 02:40:42;;;;;;;0.00;0.00;;;12.50;99.90;;;;;;5014831;28;19922;-73
2022/05/20 02:43:10;;;;;;;0.00;0.00;;;12.50;99.90;;;;;;5014675;28;20054;-73
2022/05/20 02:45:39;;;;;;;0.00;0.00;;;12.50;99.90;;;;;;5013764;28;20050;-74
2022/05/20 02:48:11;;;;;;;0.00;0.00;;;12.50;99.90;;;;;;5018267;28;20065;-74
2022/05/20 02:50:39;;;;;;;0.00;0.00;;;12.50;99.90;;;;;;5018674;28;20046;-74
2022/05/20 02:53:07;;;;;;;0.00;0.00;;;12.50;99.90;;;;;;5000161;28;20045;-73
2022/05/20 02:55:35;;;;;;;0.00;0.00;;;12.50;99.90;;;;;;5018136;28;20477;-73
2022/05/20 02:58:03;;;;;;;0.00;0.00;;;12.50;99.90;;;;;;5017140;28;20457;-72
2022/05/20 03:06:03;;;;;;;0.00;0.00;;;12.60;99.90;;;;;;5016972;28;20058;-74
2022/05/20 03:08:31;;;;;;;0.00;0.00;;;12.60;99.90;;;;;;5000814;28;20073;-71
2022/05/20 03:10:58;;;;;;;0.00;0.00;;;12.60;99.90;;;;;;5016823;28;20050;-74
2022/05/20 03:13:26;;;;;;;0.00;0.00;;;12.60;99.90;;;;;;5017950;28;20472;-75
2022/05/20 03:15:53;;;;;;;0.00;0.00;;;12.70;99.90;;;;;;5017808;28;20053;-72
2022/05/20 03:18:21;;;;;;;0.00;0.00;;;12.70;99.90;;;;;;5016752;28;20038;-72
2022/05/20 03:20:49;;;;;;;0.00;0.00;;;12.70;99.90;;;;;;5001076;28;20045;-72
2022/05/20 03:23:16;;;;;;;0.00;0.00;;;12.70;99.90;;;;;;5017665;28;20491;-75
2022/05/20 03:25:44;;;;;;;0.00;0.00;;;12.60;99.90;;;;;;5016900;28;20046;-74
2022/05/20 03:28:12;;;;;;;0.00;0.00;;;12.60;99.90;;;;;;5017341;28;20058;-72
2022/05/20 03:30:39;;;;;;;0.00;0.00;;;12.60;99.90;;;;;;5017906;28;20050;-74
2022/05/20 03:33:07;;;;;;;0.00;0.00;;;12.50;99.90;;;;;;4999186;28;20053;-74
2022/05/20 03:35:34;;;;;;;0.00;0.00;;;12.50;99.90;;;;;;5000218;28;20053;-74
2022/05/20 03:38:02;;;;;;;0.00;0.00;;;12.50;99.90;;;;;;5016982;28;20053;-70
2022/05/20 03:40:30;;;;;;;0.00;0.00;;;12.50;99.90;;;;;;5017425;28;20483;-72
2022/05/20 03:42:57;;;;;;;0.00;0.00;;;12.50;99.90;;;;;;5017309;28;20046;-73
2022/05/20 03:45:25;;;;;;;0.00;0.00;;;12.50;99.90;;;;;;5016198;28;20061;-70
2022/05/20 03:47:53;;;;;;;0.00;0.00;;;12.60;99.90;;;;;;5017155;28;20053;-74
2022/05/20 03:50:20;;;;;;;0.00;0.00;;;12.60;99.90;;;;;;5016964;28;20049;-71
2022/05/20 03:52:48;;;;;;;0.00;0.00;;;12.60;99.90;;;;;;5016197;28;20050;-73
2022/05/20 03:55:16;;;;;;;0.00;0.00;;;12.70;99.90;;;;;;5017347;28;20073;-75
2022/05/20 03:57:43;;;;;;;0.00;0.00;;;12.70;99.90;;;;;;5016143;28;20042;-74
2022/05/20 04:00:12;;;;;;;0.00;0.00;;;12.70;99.90;;;;;;5017038;28;20042;-71
2022/05/20 04:02:40;;;;;;;0.00;0.00;;;12.70;99.90;;;;;;5017131;28;20057;-75
2022/05/20 04:05:07;;;;;;;0.00;0.00;;;12.60;99.90;;;;;;5015762;28;20054;-72
2022/05/20 04:07:36;;;;;;;0.00;0.00;;;12.60;99.90;;;;;;5016715;28;20057;-74
2022/05/20 04:10:05;;;;;;;0.00;0.00;;;12.60;99.90;;;;;;5000129;28;20049;-74
2022/05/20 04:12:38;;;;;;;0.00;0.00;;;12.60;99.90;;;;;;4998877;28;20069;-71
2022/05/20 04:15:08;;;;;;;0.00;0.00;;;12.60;99.90;;;;;;5016557;28;20056;-72
2022/05/20 04:17:36;;;;;;;0.00;0.00;;;12.60;99.90;;;;;;5015851;28;20337;-74
2022/05/20 04:20:08;;;;;;;0.00;0.00;;;12.60;99.90;;;;;;5016725;28;20041;-70
2022/05/20 04:22:37;;;;;;;0.00;0.00;;;12.60;99.90;;;;;;5016933;28;20045;-72
2022/05/20 04:25:06;;;;;;;0.00;0.00;;;12.60;99.90;;;;;;5015787;28;20490;-73
2022/05/20 04:27:33;;;;;;;0.00;0.00;;;12.60;99.90;;;;;;5016704;28;20338;-74
2022/05/20 04:30:04;;;;;;;0.00;0.00;;;12.60;99.90;;;;;;5016425;28;20365;-71
2022/05/20 04:32:32;;;;;;;0.00;0.00;;;12.70;99.90;;;;;;5015363;28;20050;-74
2022/05/20 04:34:59;;;;;;;0.00;0.00;;;12.70;99.90;;;;;;5016330;28;20058;-74
2022/05/20 04:37:27;;;;;;;0.00;0.00;;;12.70;99.90;;;;;;5016786;28;20057;-74
2022/05/20 04:39:55;;;;;;;;;;;12.80;99.90;;;;;;5015576;28;20065;-75
2022/05/20 04:47:56;;;;;;;0.00;0.00;;;13.00;99.90;;;;;;5016477;28;20061;-73
2022/05/20 04:50:23;;;;;;;0.00;0.00;;;13.10;99.90;;;;;;5016009;28;20054;-70
2022/05/20 04:52:51;;;;;;;0.00;0.00;;;13.10;99.90;;;;;;5014818;28;20057;-71
2022/05/20 04:55:18;;;;;;;0.00;0.00;;;13.20;99.90;;;;;;5016160;28;20053;-75
2022/05/20 04:57:49;;;;;;;0.00;0.00;;;13.20;99.90;;;;;;4998265;28;20483;-74
2022/05/20 05:00:24;;;;;;;0.00;0.00;;;13.30;99.90;;;;;;5016371;28;20034;-75
2022/05/20 05:02:52;;;;;;;0.00;0.00;;;13.30;99.90;;;;;;5016012;28;20453;-74
2022/05/20 05:05:22;;;;;;;;;;;13.30;99.90;;;;;;5015405;28;20050;-72
2022/05/20 05:07:51;;;;;;;0.00;0.00;;;13.40;99.90;;;;;;5016056;28;19942;-72
2022/05/20 05:10:23;;;;;;;0.00;0.00;;;13.40;99.90;;;;;;5016203;28;20381;-72
2022/05/20 05:12:50;;;;;;;0.00;0.00;;;13.40;99.90;;;;;;5014979;28;20053;-72
2022/05/20 05:15:18;;;;;;;0.00;0.00;;;13.50;99.90;;;;;;5015289;28;20056;-72
2022/05/20 05:20:34;;;;;;;0.00;0.00;;;13.50;99.90;;;;;;5015910;28;20045;-74
2022/05/20 05:23:02;;;;;;;0.00;0.00;;;13.60;99.90;;;;;;5015786;28;20053;-73
2022/05/20 05:25:31;;;;;;;;;;;13.60;99.90;;;;;;5014697;28;20416;-72
2022/05/20 05:27:59;;;;;;;0.00;0.00;;;13.60;99.90;;;;;;5015627;28;19928;-73
2022/05/20 05:30:27;;;;;;;0.00;0.00;;;13.70;99.90;;;;;;4998665;28;20056;-74
2022/05/20 05:32:55;;;;;;;0.00;0.00;;;13.70;99.90;;;;;;5014601;28;20057;-73
2022/05/20 05:35:26;;;;;;;0.00;0.00;;;13.80;99.90;;;;;;5014872;28;20377;-72
2022/05/20 05:37:54;;;;;;;0.00;0.00;;;13.90;99.90;;;;;;5014727;28;20045;-73
2022/05/20 05:40:23;;;;;;;;;;;13.90;99.90;;;;;;5016101;28;20050;-72
2022/05/20 05:42:51;;;;;;;0.00;0.00;;;14.00;99.90;;;;;;5015323;28;19921;-74
2022/05/20 05:45:20;;;;;;;;;;;14.00;99.90;;;;;;5013978;28;20072;-73
2022/05/20 05:47:56;;;;;;;0.00;0.00;;;14.10;99.90;;;;;;5014917;28;19921;-72
2022/05/20 05:50:24;;;;;;;0.00;0.00;;;14.00;99.90;;;;;;5014918;28;20042;-74
2022/05/20 05:53:00;;;;;;;1.98;1.17;;;14.10;99.90;;;;;;5013768;28;20053;-75
2022/05/20 05:55:28;;;;;;;1.30;0.63;;;14.10;99.90;;;;;;5014210;28;20053;-73
2022/05/20 05:57:55;;;;;;;0.00;0.00;;;14.20;99.90;;;;;;5014141;28;20054;-72
2022/05/20 06:00:23;;;;;;;0.00;0.00;;;14.20;99.90;;;;;;5014919;28;20041;-73
2022/05/20 06:02:51;;;;;;;0.00;0.00;;;14.30;99.90;;;;;;5015071;28;20041;-73
2022/05/20 06:05:20;;;;;;;0.00;0.00;;;14.30;99.90;;;;;;4996580;28;20057;-76
2022/05/20 06:07:47;;;;;;;;;;;14.30;99.90;;;;;;5015402;28;20049;-75
2022/05/20 06:10:15;;;;;;;0.00;0.00;;;14.40;99.90;;;;;;5014776;28;19922;-73
2022/05/20 06:12:43;;;;;;;0.00;0.00;;;14.30;99.90;;;;;;5013851;28;20054;-74
2022/05/20 06:15:15;;;;;;;0.00;0.00;;;14.30;99.90;;;;;;5014506;28;20041;-72
2022/05/20 06:17:43;;;;;;;0.00;0.00;;;14.30;99.90;;;;;;5013774;28;20469;-74
2022/05/20 06:20:12;;;;;;;0.00;0.00;;;14.30;99.90;;;;;;5014772;28;20353;-74
2022/05/20 06:22:39;;;;;;;0.00;0.00;;;14.20;99.90;;;;;;5017615;28;20046;-73
2022/05/20 06:25:08;;;;;;;0.00;0.00;;;14.30;99.90;;;;;;5000251;28;20049;-70
2022/05/20 06:27:36;;;;;;;0.00;0.00;;;14.20;99.90;;;;;;5018743;28;20045;-71
2022/05/20 06:30:05;;;;;;;0.00;0.00;;;14.00;99.90;;;;;;5018628;28;20050;-71
2022/05/20 06:32:33;;;;;;;0.00;0.00;;;13.80;99.90;;;;;;5017442;28;20045;-75
2022/05/20 06:40:48;;;;;;;0.00;0.00;;;13.40;99.90;;;;;;5017223;28;20076;-71
2022/05/20 06:43:21;;;;;;;0.00;0.00;;;13.40;99.90;;;;;;5017239;28;20346;-73
2022/05/20 06:45:52;;;;;;;0.00;0.00;;;13.30;99.90;;;;;;4984119;28;20380;-74
2022/05/20 06:48:42;;;;;;;0.00;0.00;;;13.30;99.90;;;;;;5018077;28;20042;-72
2022/05/20 06:51:11;;;;;;;0.00;0.00;;;13.30;99.90;;;;;;5017193;28;20468;-72
2022/05/20 06:53:39;;;;;;;0.00;0.00;;;13.40;99.90;;;;;;5018358;28;20077;-75
2022/05/20 06:56:07;;;;;;;0.00;0.00;;;13.50;99.90;;;;;;5017775;28;20354;-72
2022/05/20 06:58:34;;;;;;;0.00;0.00;;;13.60;99.90;;;;;;5016673;28;20056;-73
2022/05/20 07:01:03;;;;;;;0.00;0.00;;;13.70;99.90;;;;;;5000689;28;20061;-72
2022/05/20 07:03:31;;;;;;;0.00;0.00;;;13.80;99.90;;;;;;5017734;28;20042;-76
2022/05/20 07:05:59;;;;;;;0.00;0.00;;;13.90;99.90;;;;;;4999810;28;20048;-73
2022/05/20 07:08:26;;;;;;;0.00;0.00;;;14.00;99.90;;;;;;5017784;28;20061;-75
2022/05/20 07:10:54;;;;;;;0.00;0.00;;;14.00;99.90;;;;;;5017674;28;20038;-75
2022/05/20 07:13:38;;;;;;;0.00;0.00;;;14.10;99.90;;;;;;5002451;28;20045;-71
2022/05/20 07:16:06;;;;;;;0.00;0.00;;;14.00;99.90;;;;;;5015616;28;20046;-75
2022/05/20 07:18:34;;;;;;;0.00;0.00;;;13.70;99.90;;;;;;5016021;28;20049;-72
2022/05/20 07:21:04;;;;;;;0.00;0.00;;;13.60;99.90;;;;;;4983588;28;20453;-70
2022/05/20 07:23:32;;;;;;;0.00;0.00;;;13.50;99.90;;;;;;5016904;28;20042;-72
2022/05/20 07:26:01;;;;;;;0.00;0.00;;;13.30;99.90;;;;;;5017027;28;20061;-72
2022/05/20 07:28:30;;;;;;;0.00;0.00;;;13.30;99.90;;;;;;5017523;28;20129;-70
2022/05/20 07:30:58;;;;;;;0.00;0.00;;;13.20;99.90;;;;;;5016826;28;20449;-73
2022/05/20 07:33:26;;;;;;;0.00;0.00;;;13.10;99.90;;;;;;5016135;28;20046;-73
2022/05/20 07:35:53;;;;;;;0.00;0.00;;;13.20;99.90;;;;;;5017125;28;20050;-76
2022/05/20 07:38:21;;;;;;;0.00;0.00;;;13.20;99.90;;;;;;5016693;28;20050;-72
2022/05/20 07:40:50;;;;;;;;;;;13.10;99.90;;;;;;5001079;28;20046;-71
2022/05/20 07:43:22;;;;;;;0.00;0.00;;;13.10;99.90;;;;;;5017001;28;19925;-74
2022/05/20 07:45:51;;;;;;;0.00;0.00;;;13.00;99.90;;;;;;5016616;28;20045;-71
2022/05/20 07:48:20;;;;;;;0.00;0.00;;;13.00;99.90;;;;;;5017286;28;20053;-73
2022/05/20 07:50:53;;;;;;;0.00;0.00;;;12.90;99.90;;;;;;5017402;28;20057;-72
2022/05/20 07:53:32;;;;;;;0.00;0.00;;;12.80;99.90;;;;;;5017173;28;20050;-70
2022/05/20 07:56:14;;;;;;;0.00;0.00;;;12.80;99.90;;;;;;5017241;28;20046;-72
2022/05/20 07:58:48;;;;;;;0.00;0.00;;;12.80;99.90;;;;;;5004688;28;20045;-74
2022/05/20 08:01:25;;;;;;;0.00;0.00;;;12.80;99.90;;;;;;4997256;28;20070;-70
2022/05/20 08:07:44;;;;;;;0.00;0.00;;;12.70;99.90;;;;;;4898139;29;20503;-69
2022/05/20 08:10:17;;;;;;;0.00;0.00;;;12.50;99.90;;;;;;4919032;29;20396;-70
2022/05/20 08:12:46;;;;;;;0.00;0.00;;;12.20;99.90;;;;;;4968636;28;20343;-74
2022/05/20 08:15:15;;;;;;;0.00;0.00;;;12.10;99.90;;;;;;4980251;28;20042;-73
2022/05/20 08:17:43;;;;;;;0.22;0.22;;;12.00;99.90;;;;;;4995951;28;20043;-72
2022/05/20 08:20:18;;;;;;;0.00;0.00;;;11.90;99.90;;;;;;4996840;28;20042;-73
2022/05/20 08:22:45;;;;;;;0.00;0.00;;;11.70;99.90;;;;;;4996662;28;20469;-73
2022/05/20 08:25:13;;;;;;;0.00;0.00;;;11.70;99.90;;;;;;4995704;28;20053;-72
2022/05/20 08:27:40;;;;;;;0.00;0.00;;;11.60;99.90;;;;;;4996725;28;20050;-72
2022/05/20 08:30:14;;;;;;;0.00;0.00;;;11.50;99.90;;;;;;4996695;28;20046;-72
2022/05/20 08:32:42;;;;;;;0.00;0.00;;;11.50;99.90;;;;;;4995976;28;20050;-74
2022/05/20 08:35:10;;;;;;;1.70;0.85;;;11.30;99.90;;;;;;4978356;28;20458;-73
2022/05/20 08:37:40;;;;;;;0.00;0.00;;;11.30;99.90;;;;;;4978010;28;20049;-77
2022/05/20 08:40:16;;;;;;;0.05;0.05;;;11.30;99.90;;;;;;4996389;28;20046;-73
2022/05/20 08:42:44;;;;;;;0.00;0.00;;;11.30;99.90;;;;;;4996465;28;20042;-71
2022/05/20 08:45:17;;;;;;;0.00;0.00;;;11.40;99.90;;;;;;4994986;28;20492;-72
2022/05/20 08:47:50;;;;;;;0.00;0.00;;;11.40;99.90;;;;;;4996462;28;20050;-74
2022/05/20 08:50:32;;;;;;;0.00;0.00;;;11.50;99.90;;;;;;4996635;28;20050;-73
2022/05/20 08:53:01;;;;;;;0.00;0.00;;;11.50;99.90;;;;;;4995143;28;20062;-76
2022/05/20 08:55:28;;;;;;;0.00;0.00;;;11.50;99.90;;;;;;4996035;28;20064;-72
2022/05/20 08:58:02;;;;;;;0.00;0.00;;;11.40;99.90;;;;;;4994936;28;20042;-71
2022/05/20 09:00:30;;;;;;;0.00;0.00;;;11.30;99.90;;;;;;4978992;28;20050;-72
2022/05/20 09:02:58;;;;;;;0.00;0.00;;;11.40;99.90;;;;;;4996029;28;20359;-73
2022/05/20 09:05:31;;;;;;;0.00;0.00;;;11.40;99.90;;;;;;4994910;28;20058;-70
2022/05/20 09:08:01;;;;;;;0.00;0.00;;;11.50;99.90;;;;;;4996139;28;20058;-76
2022/05/20 09:10:33;;;;;;;0.00;0.00;;;11.30;99.90;;;;;;4995821;28;20042;-74
2022/05/20 09:13:07;;;;;;;0.00;0.00;;;11.50;99.90;;;;;;4994711;28;20050;-75
2022/05/20 09:15:49;;;;;;;0.00;0.00;;;11.40;99.90;;;;;;4996207;28;20358;-72
2022/05/20 09:18:30;;;;;;;0.00;0.00;;;11.50;99.90;;;;;;4994886;28;20053;-72
2022/05/20 09:20:57;;;;;;;0.00;0.00;;;11.40;99.90;;;;;;4995878;28;20042;-74
2022/05/20 09:23:26;;;;;;;0.00;0.00;;;11.30;99.90;;;;;;4995701;28;20046;-71
2022/05/20 09:26:11;;;;;;;0.00;0.00;;;11.30;99.90;;;;;;4994533;28;20061;-77
2022/05/20 09:28:50;;;;;;;0.00;0.00;;;11.40;99.90;;;;;;4978802;28;20053;-75
2022/05/20 09:31:30;;;;;;;0.00;0.00;;;11.40;99.90;;;;;;4994430;28;20050;-72
2022/05/20 09:34:27;;;;;;;0.00;0.00;;;11.30;99.90;;;;;;4995942;28;20054;-77
2022/05/20 09:37:05;;;;;;;0.00;0.00;;;11.40;99.90;;;;;;4995282;28;20051;-73
2022/05/20 09:39:39;;;;;;;0.00;0.00;;;11.50;99.90;;;;;;4977486;28;20047;-72
2022/05/20 09:42:15;;;;;;;0.00;0.00;;;11.40;99.90;;;;;;4995434;28;20051;-74
2022/05/20 09:44:52;;;;;;;0.00;0.00;;;11.30;99.90;;;;;;4994718;28;20042;-72
2022/05/20 09:47:40;;;;;;;0.00;0.00;;;11.30;99.90;;;;;;4978979;28;20046;-73
2022/05/20 09:50:17;;;;;;;0.00;0.00;;;11.40;99.90;;;;;;4995584;28;20049;-70
2022/05/20 09:52:46;;;;;;;0.00;0.00;;;11.50;99.90;;;;;;4994458;28;20046;-74
2022/05/20 09:55:29;;;;;;;0.00;0.00;;;11.50;99.90;;;;;;4995178;28;20046;-73
2022/05/20 09:58:15;;;;;;;0.00;0.00;;;11.60;99.90;;;;;;4993747;28;20054;-75
2022/05/20 10:00:49;;;;;;;0.00;0.00;;;11.70;99.90;;;;;;4995188;28;20053;-75
2022/05/20 10:03:43;;;;;;;0.00;0.00;;;11.70;99.90;;;;;;4978725;28;20054;-71
2022/05/20 10:06:35;;;;;;;0.00;0.00;;;11.80;99.90;;;;;;4994085;28;20065;-74
2022/05/20 10:09:27;;;;;;;0.00;0.00;;;11.70;99.90;;;;;;4995050;28;20061;-74
2022/05/20 10:12:12;;;;;;;0.00;0.00;;;11.80;99.90;;;;;;4994122;28;20065;-73
2022/05/20 10:14:45;;;;;;;0.00;0.00;;;11.90;99.90;;;;;;4995359;28;20051;-72
2022/05/20 10:17:51;;;;;;;0.00;0.00;;;11.90;99.90;;;;;;4977164;28;20053;-71
2022/05/20 10:20:39;;;;;;;2.40;0.30;;;12.00;99.90;;;;;;4994758;28;20046;-75
2022/05/20 10:23:36;;;;;;;0.00;0.00;;;12.00;99.90;;;;;;4994717;28;20499;-71
2022/05/20 10:26:33;;;;;;;0.22;0.22;;;12.00;99.90;;;;;;4993664;28;20461;-72
2022/05/20 10:32:49;;;;;;;0.00;0.00;;;11.80;99.90;;;;;;4993288;28;20378;-74
2022/05/20 10:35:20;;;;;;;0.00;0.00;;;11.80;99.90;;;;;;4977324;28;20046;-74
2022/05/20 10:38:25;;;;;;;0.00;0.00;;;11.70;99.90;;;;;;4993706;28;20046;-73
2022/05/20 10:41:01;;;;;;;0.00;0.00;;;11.60;99.90;;;;;;4994696;28;20050;-76
2022/05/20 10:50:01;;;;;;;0.00;0.00;;;11.60;99.90;;;;;;4995087;28;20050;-74
2022/05/20 10:52:50;;;;;;;0.00;0.00;;;11.70;99.90;;;;;;4993430;28;20358;-72
2022/05/20 10:55:33;;;;;;;0.00;0.00;;;11.60;99.90;;;;;;4995199;28;20046;-71
2022/05/20 10:58:07;;;;;;;0.00;0.00;;;11.60;99.90;;;;;;4993911;28;20046;-71
2022/05/20 11:00:52;;;;;;;0.00;0.00;;;11.60;99.90;;;;;;4995035;28;20051;-72
2022/05/20 11:03:38;;;;;;;0.00;0.00;;;11.70;99.90;;;;;;4976687;28;20463;-73
2022/05/20 11:06:18;;;;;;;0.00;0.00;;;11.80;99.90;;;;;;4993699;28;20477;-75
2022/05/20 11:08:48;;;;;;;0.00;0.00;;;11.90;99.90;;;;;;4997071;28;20046;-75
2022/05/20 11:11:57;;;;;;;0.00;0.00;;;12.00;99.90;;;;;;4981268;28;20046;-75
2022/05/20 11:14:39;;;;;;;0.00;0.00;;;12.10;99.90;;;;;;4972785;28;20055;-74
2022/05/20 11:17:42;;;;;;;0.00;0.00;;;12.20;99.90;;;;;;4998162;28;20042;-73
2022/05/20 11:20:31;;;;;;;0.00;0.00;;;12.40;99.90;;;;;;4957640;28;20065;-75
2022/05/20 11:23:22;;;;;;;0.00;0.00;;;12.40;99.90;;;;;;4998065;28;20046;-74
2022/05/20 11:25:58;;;;;;;0.00;0.00;;;12.60;99.90;;;;;;4997367;28;20069;-73
2022/05/20 11:28:39;;;;;;;0.00;0.00;;;12.60;99.90;;;;;;4998775;28;20050;-74
2022/05/20 11:31:10;;;;;;;0.00;0.00;;;12.60;99.90;;;;;;4996899;28;20500;-77
2022/05/20 11:34:11;;;;;;;0.00;0.00;;;12.60;99.90;;;;;;4998028;28;20073;-72
2022/05/20 11:37:15;;;;;;;0.00;0.00;;;12.70;99.90;;;;;;4997600;28;20043;-72
2022/05/20 11:40:19;;;;;;;0.00;0.00;;;12.70;99.90;;;;;;4996693;28;20369;-74
2022/05/20 11:42:55;;;;;;;0.00;0.00;;;12.90;99.90;;;;;;4997411;28;20053;-73
2022/05/20 11:45:45;;;;;;;0.00;0.00;;;13.10;99.90;;;;;;4996901;28;20046;-71
2022/05/20 11:48:25;;;;;;;0.00;0.00;;;13.30;99.90;;;;;;4997660;28;20492;-74
2022/05/20 11:51:05;;;;;;;0.00;0.00;;;13.30;99.90;;;;;;4997299;28;20049;-72
2022/05/20 11:53:51;;;;;;;0.00;0.00;;;13.50;99.90;;;;;;4997810;28;20043;-73
2022/05/20 11:56:42;;;;;;;0.00;0.00;;;13.60;99.90;;;;;;4997344;28;20054;-75
2022/05/20 11:59:17;;;;;;;0.00;0.00;;;13.70;99.90;;;;;;4996175;28;20042;-74
2022/05/20 12:01:49;;;;;;;0.22;0.22;;;13.70;99.90;;;;;;4997617;28;20042;-72
2022/05/20 12:04:18;;;;;;;0.03;0.03;;;13.80;99.90;;;;;;4996130;28;20039;-72
2022/05/20 12:07:04;;;;;;;0.00;0.00;;;13.80;99.90;;;;;;4980105;28;20054;-73
2022/05/20 12:09:47;;;;;;;0.00;0.00;;;13.80;99.90;;;;;;4980020;28;20053;-74
2022/05/20 12:12:25;;;;;;;0.00;0.00;;;13.70;99.90;;;;;;4996033;28;20042;-73
2022/05/20 12:15:05;;;;;;;0.00;0.00;;;13.60;99.90;;;;;;4996449;28;20046;-73
2022/05/20 12:17:42;;;;;;;0.10;0.10;;;13.50;99.90;;;;;;4996687;28;20042;-72
2022/05/20 12:25:58;;;;;;;0.00;0.00;;;13.60;99.90;;;;;;4996015;28;19922;-73
2022/05/20 12:28:25;;;;;;;0.00;0.00;;;13.70;99.90;;;;;;4996321;28;20049;-72
2022/05/20 12:31:36;;;;;;;0.00;0.00;;;13.70;99.90;;;;;;4996530;28;20048;-76
2022/05/20 12:34:29;;;;;;;0.00;0.00;;;13.70;99.90;;;;;;4979720;28;20050;-73
2022/05/20 12:36:57;;;;;;;1.88;0.35;;;13.80;99.90;;;;;;4995905;28;20054;-75
2022/05/20 12:39:52;;;;;;;0.00;0.00;;;13.70;99.90;;;;;;4996312;28;20047;-73
2022/05/20 12:42:24;;;;;;;0.00;0.00;;;13.80;99.90;;;;;;5012887;28;20049;-72
2022/05/20 12:44:52;;;;;;;12.10;0.88;;;13.80;99.90;;;;;;5014762;28;20045;-78
2022/05/20 12:47:31;;;;;;;0.00;0.00;;;13.90;99.90;;;;;;5015577;28;20057;-72
2022/05/20 12:50:07;;;;;;;0.00;0.00;;;14.00;99.90;;;;;;5015868;28;20384;-75
2022/05/20 12:52:52;;;;;;;0.00;0.00;;;14.20;99.90;;;;;;4992768;28;20053;-75
2022/05/20 12:55:25;;;;;;;0.00;0.00;;;14.30;99.90;;;;;;5015684;28;20041;-73
2022/05/20 12:58:03;;;;;;;0.13;0.13;;;14.30;99.90;;;;;;5014455;28;20057;-75
2022/05/20 13:00:34;;;;;;;0.00;0.00;;;14.20;99.90;;;;;;5015706;28;20041;-73
2022/05/20 13:03:25;;;;;;;0.00;0.00;;;14.30;99.90;;;;;;5015674;28;20057;-72
2022/05/20 13:05:58;;;;;;;0.00;0.00;;;14.30;99.90;;;;;;5014998;28;20038;-72
2022/05/20 13:08:31;;;;;;;0.35;0.35;;;14.50;99.90;;;;;;4995686;28;20061;-75
2022/05/20 13:11:13;;;;;;;0.10;0.10;;;14.70;99.90;;;;;;5009694;28;20045;-75
2022/05/20 13:13:42;;;;;;;0.00;0.00;;;15.50;99.90;;;;;;5014941;28;20060;-73
2022/05/20 13:16:12;;;;;;;0.00;0.00;;;17.00;99.90;;;;;;5015649;28;20041;-73
2022/05/20 13:18:44;;;;;;;0.00;0.00;;;18.00;99.90;;;;;;5014139;28;20050;-76
2022/05/20 13:21:21;;;;;;;0.00;0.00;;;19.30;99.90;;;;;;5015901;28;20365;-72
2022/05/20 13:23:53;;;;;;;0.98;0.88;;;20.00;99.90;;;;;;5015655;28;20042;-73
2022/05/20 13:26:27;;;;;;;0.00;0.00;;;20.10;99.90;;;;;;5014188;28;20049;-76
2022/05/20 13:29:15;;;;;;;0.00;0.00;;;20.30;99.90;;;;;;5015301;28;20069;-75
2022/05/20 13:31:44;;;;;;;0.00;0.00;;;19.70;99.90;;;;;;5013221;28;20461;-77
2022/05/20 13:34:15;;;;;;;0.00;0.00;;;19.00;99.90;;;;;;5015143;28;20499;-75
2022/05/20 13:36:48;;;;;;;0.00;0.00;;;18.60;99.90;;;;;;5014801;28;20369;-76
2022/05/20 13:39:21;;;;;;;0.00;0.00;;;19.70;99.90;;;;;;5014025;28;20057;-76
2022/05/20 13:41:50;;;;;;;0.35;0.35;;;18.80;99.90;;;;;;5015667;28;20046;-75
2022/05/20 13:44:24;;;;;;;0.00;0.00;;;18.10;99.90;;;;;;5013888;28;20053;-75
2022/05/20 13:50:01;;;;;;;0.00;0.00;;;19.90;99.90;;;;;;4958115;28;20046;-72
2022/05/20 13:52:29;;;;;;;0.00;0.00;;;21.90;99.90;;;;;;4973165;28;20054;-75
2022/05/20 13:55:04;;;;;;;0.00;0.00;;;22.10;99.90;;;;;;4995176;28;20068;-73
2022/05/20 13:57:41;;;;;;;0.00;0.00;;;21.20;99.90;;;;;;5015168;28;20472;-75
2022/05/20 14:00:20;;;;;;;0.00;0.00;;;20.60;99.90;;;;;;5014788;28;20354;-75
2022/05/20 14:02:57;;;;;;;0.00;0.00;;;19.80;99.90;;;;;;5014859;28;20469;-76
2022/05/20 14:05:45;;;;;;;0.00;0.00;;;19.00;99.90;;;;;;5014149;28;20052;-77